Time;durP1;ratioP1;P1;durP2;ratioP2;P2;SDS_P1;SDS_P2;PMS_P1;PMS_P2;Temp;Humidity;BMP_temperature;BMP_pressure;BME280_temperature;BME280_humidity;BME280_pressure;Samples;Min_cycle;Max_cycle;Signal;HPM_P1;HPM_P2
2022/11/19 00:00:38;;;;;;;7.63;6.83;;;-3.80;99.90;;;;;;4992025;28;20471;-66
2022/11/19 00:03:03;;;;;;;8.70;7.00;;;-3.80;99.90;;;;;;4993427;28;20632;-66
2022/11/19 00:05:29;;;;;;;10.30;5.60;;;-3.80;99.90;;;;;;4992644;28;20189;-65
2022/11/19 00:07:54;;;;;;;13.43;6.37;;;-3.90;99.90;;;;;;4992914;28;20212;-65
2022/11/19 00:10:20;;;;;;;5.43;4.93;;;-3.90;99.90;;;;;;4993007;28;20585;-65
2022/11/19 00:12:55;;;;;;;9.47;6.37;;;-3.90;99.90;;;;;;4987606;28;20260;-64
2022/11/19 00:15:23;;;;;;;11.07;7.17;;;-3.90;99.90;;;;;;4989618;28;20204;-65
2022/11/19 00:17:49;;;;;;;10.30;5.67;;;-4.00;99.90;;;;;;4987271;28;20479;-65
2022/11/19 00:20:16;;;;;;;5.60;5.10;;;-4.00;99.90;;;;;;5011244;23;20483;-66
2022/11/19 00:22:42;;;;;;;13.50;5.80;;;-4.00;99.90;;;;;;5028576;28;20203;-66
2022/11/19 00:25:09;;;;;;;7.40;4.80;;;-4.00;99.90;;;;;;5028235;28;20418;-66
2022/11/19 00:27:35;;;;;;;6.63;5.87;;;-4.00;99.90;;;;;;5024522;28;20411;-66
2022/11/19 00:30:01;;;;;;;5.87;4.90;;;-4.00;99.90;;;;;;5028316;28;20496;-66
2022/11/19 00:32:27;;;;;;;8.90;5.70;;;-4.00;99.90;;;;;;5042465;28;20418;-66
2022/11/19 00:34:53;;;;;;;6.90;5.40;;;-4.00;99.90;;;;;;5043182;28;20489;-65
2022/11/19 00:37:18;;;;;;;5.53;5.03;;;-4.10;99.90;;;;;;5039818;28;20449;-66
2022/11/19 00:39:44;;;;;;;7.50;5.03;;;-4.10;99.90;;;;;;5042494;28;20206;-67
2022/11/19 00:42:09;;;;;;;8.77;5.50;;;-4.20;99.90;;;;;;5040820;28;20170;-66
2022/11/19 00:44:35;;;;;;;7.80;6.90;;;-4.10;99.90;;;;;;5024803;28;20614;-66
2022/11/19 00:47:01;;;;;;;7.93;5.70;;;-4.10;99.90;;;;;;5039640;28;20199;-66
2022/11/19 00:49:26;;;;;;;8.13;5.63;;;-4.10;99.90;;;;;;5036322;28;20274;-66
2022/11/19 00:51:52;;;;;;;6.23;5.07;;;-4.10;99.90;;;;;;5043125;28;20183;-66
2022/11/19 00:54:18;;;;;;;13.00;6.10;;;-4.10;99.90;;;;;;5036136;28;20231;-66
2022/11/19 00:56:43;;;;;;;6.27;5.60;;;-4.00;99.90;;;;;;5039733;28;20475;-65
2022/11/19 00:59:09;;;;;;;6.90;4.80;;;-4.00;99.90;;;;;;5042411;28;20171;-66
2022/11/19 01:01:35;;;;;;;7.63;4.33;;;-4.00;99.90;;;;;;5031735;28;20205;-66
2022/11/19 01:04:00;;;;;;;7.50;5.60;;;-4.10;99.90;;;;;;5041620;28;20163;-66
2022/11/19 01:06:27;;;;;;;9.50;5.07;;;-4.10;99.90;;;;;;5042516;28;20320;-66
2022/11/19 01:08:52;;;;;;;6.33;5.63;;;-4.00;99.90;;;;;;5041621;28;20163;-67
2022/11/19 01:11:21;;;;;;;10.57;4.97;;;-4.10;99.90;;;;;;5025135;28;20734;-67
2022/11/19 01:13:47;;;;;;;6.35;4.95;;;-4.10;99.90;;;;;;5040727;28;20432;-68
2022/11/19 01:16:27;;;;;;;6.80;5.27;;;-4.00;99.90;;;;;;5038104;28;20533;-66
2022/11/19 01:18:53;;;;;;;9.70;6.32;;;-4.00;99.90;;;;;;5036719;28;20421;-66
2022/11/19 01:21:20;;;;;;;6.60;5.37;;;-3.80;99.90;;;;;;5041263;28;20684;-65
2022/11/19 01:23:46;;;;;;;9.23;4.77;;;-3.90;99.90;;;;;;5038717;28;21113;-67
2022/11/19 01:26:12;;;;;;;10.50;5.80;;;-3.90;99.90;;;;;;5044070;28;20558;-65
2022/11/19 01:28:39;;;;;;;10.33;6.40;;;-3.60;99.90;;;;;;5039802;28;20541;-66
2022/11/19 01:31:10;;;;;;;11.73;4.97;;;-3.70;99.90;;;;;;5044241;28;20887;-67
2022/11/19 01:33:37;;;;;;;7.13;5.77;;;-3.90;99.90;;;;;;5039019;28;20414;-66
2022/11/19 01:36:06;;;;;;;8.00;5.90;;;-3.90;99.90;;;;;;5035208;28;21376;-67
2022/11/19 01:38:32;;;;;;;7.10;6.30;;;-4.00;99.90;;;;;;5027873;28;20493;-66
2022/11/19 01:40:57;;;;;;;7.85;5.72;;;-4.00;99.90;;;;;;5030793;28;20430;-66
2022/11/19 01:43:45;;;;;;;9.67;6.00;;;-3.90;99.90;;;;;;5039966;28;20241;-66
2022/11/19 01:46:13;;;;;;;10.50;6.10;;;-3.80;99.90;;;;;;5015065;28;20188;-67
2022/11/19 01:49:01;;;;;;;6.23;4.60;;;-3.80;99.90;;;;;;5040109;28;20415;-66
2022/11/19 01:51:27;;;;;;;8.90;4.88;;;-3.80;99.90;;;;;;5037237;28;20477;-65
2022/11/19 01:53:56;;;;;;;8.30;5.97;;;-3.90;99.90;;;;;;5023116;28;20168;-65
2022/11/19 01:56:23;;;;;;;6.67;6.00;;;-4.00;99.90;;;;;;5025186;28;20247;-66
2022/11/19 01:58:54;;;;;;;11.93;6.03;;;-3.90;99.90;;;;;;5029751;28;20402;-66
2022/11/19 02:01:21;;;;;;;9.53;6.23;;;-3.90;99.90;;;;;;5034196;28;20444;-67
2022/11/19 02:03:48;;;;;;;11.10;6.80;;;-4.00;99.90;;;;;;5037465;28;20417;-67
2022/11/19 02:06:13;;;;;;;6.87;4.87;;;-4.00;99.90;;;;;;5037335;28;20780;-66
2022/11/19 02:08:44;;;;;;;7.07;5.23;;;-4.00;99.90;;;;;;5039153;28;20489;-66
2022/11/19 02:11:51;;;;;;;7.00;5.90;;;-3.90;99.90;;;;;;5041915;28;20193;-66
2022/11/19 02:14:17;;;;;;;8.23;5.63;;;-4.00;99.90;;;;;;4949347;28;20462;-66
2022/11/19 02:16:57;;;;;;;9.33;6.97;;;-4.10;99.90;;;;;;5042293;28;20409;-65
2022/11/19 02:20:00;;;;;;;11.40;5.77;;;-4.10;99.90;;;;;;5020517;28;20163;-66
2022/11/19 02:22:34;;;;;;;10.10;5.30;;;-4.20;99.90;;;;;;5037762;28;20767;-66
2022/11/19 02:25:19;;;;;;;8.67;5.00;;;-4.20;99.90;;;;;;5030502;28;20863;-66
2022/11/19 02:27:59;;;;;;;10.00;5.90;;;-4.30;99.90;;;;;;5037630;28;20806;-66
2022/11/19 02:30:26;;;;;;;9.80;4.97;;;-4.30;99.90;;;;;;5031452;28;20488;-66
2022/11/19 02:32:57;;;;;;;10.07;6.63;;;-4.30;99.90;;;;;;5035553;28;20171;-65
2022/11/19 02:35:39;;;;;;;6.50;5.13;;;-4.30;99.90;;;;;;5032725;28;20441;-65
2022/11/19 02:38:08;;;;;;;6.47;5.80;;;-4.20;99.90;;;;;;5036316;28;20407;-66
2022/11/19 02:40:45;;;;;;;6.27;4.93;;;-4.30;99.90;;;;;;5034943;28;20837;-66
2022/11/19 02:43:17;;;;;;;5.83;4.33;;;-4.20;99.90;;;;;;5025628;28;20422;-66
2022/11/19 02:45:56;;;;;;;7.57;6.20;;;-4.30;99.90;;;;;;5035837;28;20418;-65
2022/11/19 02:48:45;;;;;;;8.90;4.93;;;-4.10;99.90;;;;;;5042143;28;20405;-67
2022/11/19 02:51:11;;;;;;;5.90;4.40;;;-4.00;99.90;;;;;;5036530;28;20785;-65
2022/11/19 02:53:37;;;;;;;5.47;5.07;;;-4.00;99.90;;;;;;5020886;28;20970;-64
2022/11/19 02:56:16;;;;;;;9.23;5.47;;;-4.20;99.90;;;;;;5038647;28;20227;-66
2022/11/19 03:04:28;;;;;;;10.37;5.80;;;-4.20;99.90;;;;;;5033767;28;20409;-66
2022/11/19 03:07:05;;;;;;;6.00;5.15;;;-4.20;99.90;;;;;;5010784;28;20551;-66
2022/11/19 03:09:35;;;;;;;6.23;4.37;;;-4.30;99.90;;;;;;5035702;28;20191;-66
2022/11/19 03:12:21;;;;;;;6.10;4.30;;;-4.30;99.90;;;;;;5035732;28;20440;-67
2022/11/19 03:17:57;;;;;;;5.50;4.13;;;-4.40;99.90;;;;;;5032108;28;20680;-66
2022/11/19 03:20:30;;;;;;;7.43;4.35;;;-4.40;99.90;;;;;;5035467;28;20487;-66
2022/11/19 03:23:03;;;;;;;7.18;5.05;;;-4.20;99.90;;;;;;5031629;28;20822;-66
2022/11/19 03:25:38;;;;;;;9.03;5.33;;;-4.10;99.90;;;;;;5032379;28;20199;-66
2022/11/19 03:28:10;;;;;;;6.57;5.17;;;-4.30;99.90;;;;;;5025108;28;20442;-66
2022/11/19 03:30:39;;;;;;;6.45;4.15;;;-4.20;99.90;;;;;;5032842;28;20480;-66
2022/11/19 03:33:22;;;;;;;4.78;4.32;;;-4.10;99.90;;;;;;5032132;28;20178;-65
2022/11/19 03:35:53;;;;;;;4.95;4.05;;;-4.10;99.90;;;;;;5031500;28;20182;-67
2022/11/19 03:38:26;;;;;;;6.20;4.10;;;-4.00;99.90;;;;;;5028156;28;20265;-66
2022/11/19 03:40:54;;;;;;;7.53;4.90;;;-4.10;99.90;;;;;;5037252;28;20283;-67
2022/11/19 03:43:25;;;;;;;3.90;3.57;;;-4.20;99.90;;;;;;5040410;28;20533;-66
2022/11/19 03:45:54;;;;;;;9.32;5.68;;;-4.20;99.90;;;;;;5020240;28;20468;-67
2022/11/19 03:48:21;;;;;;;5.65;4.53;;;-4.30;99.90;;;;;;5045066;28;20654;-65
2022/11/19 03:50:50;;;;;;;9.33;5.43;;;-4.30;99.90;;;;;;5037323;28;20552;-66
2022/11/19 03:53:18;;;;;;;3.90;3.57;;;-4.30;99.90;;;;;;5042900;28;20467;-67
2022/11/19 03:55:49;;;;;;;4.38;3.97;;;-4.30;99.90;;;;;;5048486;28;20426;-66
2022/11/19 03:58:15;;;;;;;10.83;5.40;;;-4.30;99.90;;;;;;5031254;28;20181;-66
2022/11/19 04:00:41;;;;;;;7.73;4.80;;;-4.30;99.90;;;;;;5044657;28;20587;-66
2022/11/19 04:03:06;;;;;;;10.00;4.50;;;-4.30;99.90;;;;;;5042040;28;20625;-65
2022/11/19 04:05:32;;;;;;;5.73;4.03;;;-4.20;99.90;;;;;;5040615;28;20270;-66
2022/11/19 04:07:57;;;;;;;12.63;5.53;;;-4.20;99.90;;;;;;5042126;28;20294;-67
2022/11/19 04:10:23;;;;;;;10.27;5.90;;;-4.10;99.90;;;;;;5021471;28;20278;-66
2022/11/19 04:12:49;;;;;;;4.83;4.40;;;-4.10;99.90;;;;;;5043860;28;20168;-67
2022/11/19 04:15:15;;;;;;;4.97;4.03;;;-4.20;99.90;;;;;;5028846;28;20516;-66
2022/11/19 04:17:40;;;;;;;7.73;4.93;;;-4.20;99.90;;;;;;5034792;28;20222;-66
2022/11/19 04:20:08;;;;;;;7.53;5.07;;;-4.30;99.90;;;;;;5033391;28;20458;-66
2022/11/19 04:22:33;;;;;;;7.53;5.13;;;-4.20;99.90;;;;;;5033040;28;20180;-66
2022/11/19 04:24:59;;;;;;;6.80;4.73;;;-4.20;99.90;;;;;;5034487;28;21051;-66
2022/11/19 04:27:25;;;;;;;11.73;5.67;;;-4.10;99.90;;;;;;5040996;28;20187;-66
2022/11/19 04:29:50;;;;;;;13.57;6.37;;;-4.00;99.90;;;;;;5030292;28;20191;-67
2022/11/19 04:32:16;;;;;;;9.10;5.70;;;-3.80;99.90;;;;;;5024156;28;20217;-66
2022/11/19 04:34:41;;;;;;;5.83;4.90;;;-3.70;99.90;;;;;;5047954;28;20244;-67
2022/11/19 04:37:07;;;;;;;7.77;4.53;;;-3.70;99.90;;;;;;5040458;28;20233;-66
2022/11/19 04:39:33;;;;;;;12.03;5.63;;;-3.90;99.90;;;;;;5042186;28;20195;-66
2022/11/19 04:41:58;;;;;;;11.07;5.63;;;-3.90;99.90;;;;;;5042268;28;20184;-66
2022/11/19 04:44:24;;;;;;;5.70;4.33;;;-4.00;99.90;;;;;;5040109;28;20207;-65
2022/11/19 04:46:49;;;;;;;5.97;3.37;;;-4.00;99.90;;;;;;5029568;28;20169;-65
2022/11/19 04:49:15;;;;;;;6.43;5.17;;;-4.00;99.90;;;;;;5038730;28;20172;-66
2022/11/19 04:51:40;;;;;;;7.40;5.33;;;-4.10;99.90;;;;;;5042471;28;20940;-66
2022/11/19 04:54:07;;;;;;;6.13;5.63;;;-3.90;99.90;;;;;;5043298;28;20177;-65
2022/11/19 04:56:34;;;;;;;10.50;5.40;;;-3.60;99.90;;;;;;5039037;28;20334;-66
2022/11/19 04:58:59;;;;;;;5.83;5.30;;;-3.80;99.90;;;;;;5043400;28;20420;-66
2022/11/19 05:01:25;;;;;;;6.40;4.93;;;-3.90;99.90;;;;;;5043133;28;20493;-65
2022/11/19 05:03:51;;;;;;;8.03;4.67;;;-4.00;99.90;;;;;;5042990;28;20167;-67
2022/11/19 05:06:17;;;;;;;8.50;5.60;;;-4.00;99.90;;;;;;5016739;28;20423;-66
2022/11/19 05:08:43;;;;;;;4.55;4.03;;;-4.00;99.90;;;;;;5039269;28;20274;-66
2022/11/19 05:11:09;;;;;;;6.43;5.18;;;-4.00;99.90;;;;;;5033680;28;20266;-66
2022/11/19 05:13:34;;;;;;;7.07;3.77;;;-4.00;99.90;;;;;;5035686;28;20616;-66
2022/11/19 05:16:00;;;;;;;7.80;5.63;;;-3.90;99.90;;;;;;5036562;28;20179;-66
2022/11/19 05:18:25;;;;;;;7.30;4.43;;;-3.90;99.90;;;;;;5033295;28;20261;-66
2022/11/19 05:20:51;;;;;;;10.23;6.03;;;-3.70;99.90;;;;;;5039405;28;20543;-66
2022/11/19 05:23:17;;;;;;;5.80;4.40;;;-3.80;99.90;;;;;;5022140;28;20172;-66
2022/11/19 05:25:42;;;;;;;6.97;3.97;;;-3.70;99.90;;;;;;5012170;28;20213;-67
2022/11/19 05:28:08;;;;;;;6.03;4.60;;;-3.70;99.90;;;;;;5024304;28;20176;-69
2022/11/19 05:30:34;;;;;;;6.60;4.10;;;-3.70;99.90;;;;;;5027655;28;20664;-67
2022/11/19 05:32:59;;;;;;;5.33;4.60;;;-3.60;99.90;;;;;;5031998;28;20180;-66
2022/11/19 05:35:25;;;;;;;10.80;5.30;;;-3.50;99.90;;;;;;5032255;28;20664;-66
2022/11/19 05:37:51;;;;;;;7.80;3.70;;;-3.50;99.90;;;;;;5033482;28;20505;-66
2022/11/19 05:40:17;;;;;;;7.33;4.57;;;-3.60;99.90;;;;;;5031471;28;20199;-66
2022/11/19 05:42:43;;;;;;;7.60;3.60;;;-3.50;99.90;;;;;;5033597;28;20170;-66
2022/11/19 05:45:09;;;;;;;4.20;3.43;;;-3.40;99.90;;;;;;5032566;28;20948;-66
2022/11/19 05:47:35;;;;;;;6.93;6.20;;;-3.50;99.90;;;;;;5023192;28;20263;-66
2022/11/19 05:50:01;;;;;;;6.43;4.60;;;-3.50;99.90;;;;;;5019064;28;20433;-67
2022/11/19 05:52:27;;;;;;;6.50;4.50;;;-3.40;99.90;;;;;;5040229;28;20425;-66
2022/11/19 05:54:52;;;;;;;5.50;4.17;;;-3.50;99.90;;;;;;5041153;28;20796;-66
2022/11/19 05:57:18;;;;;;;5.80;3.70;;;-3.60;99.90;;;;;;5036800;28;20182;-65
2022/11/19 05:59:43;;;;;;;7.40;4.30;;;-3.50;99.90;;;;;;5043400;28;20278;-66
2022/11/19 06:02:09;;;;;;;6.63;4.70;;;-3.50;99.90;;;;;;5042987;28;20591;-63
2022/11/19 06:04:35;;;;;;;5.20;4.70;;;-3.60;99.90;;;;;;5025527;28;20199;-66
2022/11/19 06:07:00;;;;;;;5.27;4.37;;;-3.60;99.90;;;;;;5037466;28;20586;-66
2022/11/19 06:09:26;;;;;;;6.70;3.70;;;-3.40;99.90;;;;;;5030870;28;20201;-65
2022/11/19 06:11:52;;;;;;;4.70;4.13;;;-3.40;99.90;;;;;;5032616;28;20205;-67
2022/11/19 06:14:23;;;;;;;6.10;4.23;;;-3.30;99.90;;;;;;5045042;28;20170;-65
2022/11/19 06:16:53;;;;;;;11.60;6.47;;;-3.30;99.90;;;;;;5021585;28;20181;-67
2022/11/19 06:19:20;;;;;;;9.17;6.00;;;-3.40;99.90;;;;;;5018116;28;20801;-67
2022/11/19 06:21:46;;;;;;;7.20;5.57;;;-3.50;99.90;;;;;;5033948;28;20424;-67
2022/11/19 06:24:14;;;;;;;7.27;5.20;;;-3.50;99.90;;;;;;5022258;28;20426;-66
2022/11/19 06:26:40;;;;;;;6.80;4.90;;;-3.50;99.90;;;;;;5034544;28;20418;-66
2022/11/19 06:29:06;;;;;;;11.40;4.27;;;-3.60;99.90;;;;;;5031062;28;20480;-66
2022/11/19 06:31:32;;;;;;;8.07;4.30;;;-3.50;99.90;;;;;;5028452;28;20414;-66
2022/11/19 06:33:58;;;;;;;8.00;4.30;;;-3.40;99.90;;;;;;5017534;28;20901;-66
2022/11/19 06:36:24;;;;;;;9.07;5.33;;;-3.40;99.90;;;;;;5027115;28;20426;-66
2022/11/19 06:38:50;;;;;;;12.17;5.97;;;-3.40;99.90;;;;;;5028985;28;20407;-66
2022/11/19 06:41:16;;;;;;;11.17;6.00;;;-3.40;99.90;;;;;;5049833;22;20198;-67
2022/11/19 06:43:42;;;;;;;12.23;7.70;;;-3.50;99.90;;;;;;5034448;28;20450;-65
2022/11/19 06:46:09;;;;;;;9.33;5.57;;;-3.50;99.90;;;;;;5045568;28;20281;-66
2022/11/19 06:48:34;;;;;;;6.53;5.87;;;-3.40;99.90;;;;;;5046955;28;20871;-66
2022/11/19 06:51:00;;;;;;;7.00;4.83;;;-3.50;99.90;;;;;;5048224;28;20433;-66
2022/11/19 06:53:27;;;;;;;6.77;4.40;;;-3.40;99.90;;;;;;5048006;28;20228;-66
2022/11/19 06:56:00;;;;;;;9.90;5.70;;;-3.50;99.90;;;;;;5047193;28;20409;-65
2022/11/19 06:58:27;;;;;;;7.50;4.93;;;-3.50;99.90;;;;;;5041731;28;20444;-66
2022/11/19 07:00:53;;;;;;;9.77;4.53;;;-3.40;99.90;;;;;;5046200;28;20429;-66
2022/11/19 07:03:18;;;;;;;12.10;4.80;;;-3.40;99.90;;;;;;5047694;28;20914;-66
2022/11/19 07:05:46;;;;;;;5.93;3.60;;;-3.20;99.90;;;;;;5051581;28;20491;-66
2022/11/19 07:08:12;;;;;;;6.67;3.87;;;-3.10;99.90;;;;;;5058479;28;20171;-67
2022/11/19 07:10:37;;;;;;;8.17;4.10;;;-3.00;99.90;;;;;;5059048;28;20420;-65
2022/11/19 07:13:03;;;;;;;6.20;4.20;;;-2.90;99.90;;;;;;5066111;28;20178;-65
2022/11/19 07:15:29;;;;;;;3.83;3.50;;;-2.80;99.90;;;;;;5038674;28;20657;-66
2022/11/19 07:17:55;;;;;;;6.77;4.10;;;-2.80;99.90;;;;;;5056756;28;20227;-67
2022/11/19 07:20:21;;;;;;;5.43;3.63;;;-2.70;99.90;;;;;;5059440;28;20417;-65
2022/11/19 07:22:46;;;;;;;5.83;4.60;;;-2.60;99.90;;;;;;5058202;28;20432;-66
2022/11/19 07:25:12;;;;;;;5.40;4.87;;;-2.50;99.90;;;;;;5060690;28;20773;-67
2022/11/19 07:27:39;;;;;;;8.10;4.53;;;-2.40;99.90;;;;;;5056975;28;20175;-67
2022/11/19 07:30:06;;;;;;;6.40;4.37;;;-2.30;99.90;;;;;;5063981;28;20408;-66
2022/11/19 07:32:32;;;;;;;5.77;4.83;;;-2.20;99.90;;;;;;5060765;28;20433;-66
2022/11/19 07:34:58;;;;;;;6.33;4.70;;;-2.20;99.90;;;;;;5062398;28;20404;-66
2022/11/19 07:37:24;;;;;;;6.60;4.27;;;-2.10;99.90;;;;;;5063211;28;20412;-65
2022/11/19 07:39:49;;;;;;;7.17;5.23;;;-2.00;99.90;;;;;;5053201;28;20262;-65
2022/11/19 07:44:59;;;;;;;5.77;4.83;;;-1.80;99.90;;;;;;5055896;28;20201;-66
2022/11/19 07:47:25;;;;;;;5.47;3.93;;;-1.70;99.90;;;;;;5052917;28;20413;-65
2022/11/19 07:49:50;;;;;;;5.77;4.10;;;-1.60;99.90;;;;;;5040670;28;20190;-66
2022/11/19 07:52:16;;;;;;;7.73;5.00;;;-1.40;99.90;;;;;;5061616;28;20237;-67
2022/11/19 07:54:42;;;;;;;6.03;3.97;;;-1.40;99.90;;;;;;5067607;28;20167;-67
2022/11/19 07:57:07;;;;;;;6.20;4.37;;;-1.30;99.90;;;;;;5061511;28;20869;-65
2022/11/19 07:59:33;;;;;;;6.87;3.93;;;-1.20;99.90;;;;;;5062826;28;20173;-65
2022/11/19 08:01:59;;;;;;;4.43;4.03;;;-1.10;99.90;;;;;;5055715;28;20197;-67
2022/11/19 08:04:27;;;;;;;9.33;3.63;;;-1.10;99.90;;;;;;5060704;28;20198;-66
2022/11/19 08:06:53;;;;;;;6.57;5.13;;;-1.10;99.90;;;;;;5060394;28;20171;-66
2022/11/19 08:09:19;;;;;;;5.00;3.87;;;-1.10;99.90;;;;;;5058348;28;20405;-67
2022/11/19 08:11:44;;;;;;;4.33;3.53;;;-1.00;99.90;;;;;;5063046;28;20183;-66
2022/11/19 08:14:13;;;;;;;3.90;3.50;;;-1.00;99.90;;;;;;5059547;28;20883;-67
2022/11/19 08:19:24;;;;;;;4.50;3.97;;;-0.90;99.90;;;;;;5044072;28;20448;-66
2022/11/19 08:21:50;;;;;;;4.47;4.07;;;-0.90;99.90;;;;;;5053827;28;20417;-66
2022/11/19 08:24:18;;;;;;;5.20;4.10;;;-0.90;99.90;;;;;;5055024;28;20171;-66
2022/11/19 08:26:44;;;;;;;4.77;3.63;;;-0.90;99.90;;;;;;5053703;28;20440;-66
2022/11/19 08:29:12;;;;;;;4.40;4.00;;;-0.90;99.90;;;;;;5053990;28;20404;-67
2022/11/19 08:31:38;;;;;;;4.47;3.70;;;-0.80;99.90;;;;;;5055200;28;20437;-66
2022/11/19 08:34:04;;;;;;;6.67;3.70;;;-0.70;99.90;;;;;;5049604;28;20511;-66
2022/11/19 08:36:29;;;;;;;3.30;3.00;;;-0.50;99.90;;;;;;5057049;28;20888;-66
2022/11/19 08:38:57;;;;;;;5.40;3.60;;;-0.40;99.90;;;;;;5059278;28;20190;-66
2022/11/19 08:44:07;;;;;;;4.53;3.57;;;-0.10;99.90;;;;;;5055234;28;20412;-66
2022/11/19 08:46:33;;;;;;;5.10;3.73;;;-0.10;99.90;;;;;;5068116;28;20410;-67
2022/11/19 08:48:58;;;;;;;4.87;3.60;;;0.10;99.90;;;;;;5061201;28;20173;-66
2022/11/19 08:51:24;;;;;;;3.60;3.27;;;0.00;99.90;;;;;;5053343;28;20509;-65
2022/11/19 08:53:52;;;;;;;10.10;3.53;;;-0.10;99.90;;;;;;5061973;28;20174;-65
2022/11/19 08:56:19;;;;;;;4.67;2.73;;;0.00;99.90;;;;;;5064570;28;20170;-66
2022/11/19 08:58:44;;;;;;;3.93;3.07;;;0.00;99.90;;;;;;5063154;28;20416;-65
2022/11/19 09:01:12;;;;;;;6.40;3.60;;;0.10;99.90;;;;;;5064527;28;20753;-65
2022/11/19 09:03:37;;;;;;;4.20;3.67;;;0.10;99.90;;;;;;5064299;28;20170;-66
2022/11/19 09:06:04;;;;;;;4.00;2.27;;;0.00;99.90;;;;;;5064495;28;20969;-66
2022/11/19 09:08:30;;;;;;;4.57;4.17;;;0.30;99.90;;;;;;5042273;28;20881;-67
2022/11/19 09:10:56;;;;;;;4.90;3.50;;;0.40;99.90;;;;;;5059906;28;20412;-67
2022/11/19 09:13:22;;;;;;;4.30;3.73;;;0.40;99.90;;;;;;5052582;28;20800;-65
2022/11/19 09:15:48;;;;;;;6.60;4.20;;;0.40;99.90;;;;;;5055686;28;20171;-65
2022/11/19 09:18:14;;;;;;;3.00;2.70;;;0.40;99.90;;;;;;5053780;28;20866;-67
2022/11/19 09:20:40;;;;;;;5.40;3.83;;;0.30;99.90;;;;;;5056255;28;20425;-65
2022/11/19 09:23:05;;;;;;;5.73;3.60;;;0.40;99.90;;;;;;5055929;28;20506;-66
2022/11/19 09:25:32;;;;;;;5.33;4.83;;;0.60;99.90;;;;;;5048123;28;20285;-67
2022/11/19 09:27:58;;;;;;;8.57;4.20;;;0.60;99.90;;;;;;5043240;28;20181;-66
2022/11/19 09:30:24;;;;;;;4.83;4.07;;;0.60;99.90;;;;;;5059040;28;20418;-66
2022/11/19 09:32:49;;;;;;;3.73;3.43;;;0.50;99.90;;;;;;5059757;28;20237;-66
2022/11/19 09:35:15;;;;;;;4.30;3.10;;;0.70;99.90;;;;;;5043680;28;20162;-66
2022/11/19 09:37:40;;;;;;;4.10;3.70;;;0.70;99.90;;;;;;5044254;28;20232;-67
2022/11/19 09:40:08;;;;;;;4.20;3.80;;;0.80;99.90;;;;;;5063929;28;20171;-67
2022/11/19 09:42:56;;;;;;;4.73;3.50;;;1.10;99.90;;;;;;5061226;28;20381;-67
2022/11/19 09:45:38;;;;;;;5.80;3.23;;;1.00;99.90;;;;;;5065264;28;20506;-67
2022/11/19 09:48:28;;;;;;;3.57;3.00;;;0.90;99.90;;;;;;5060449;28;20398;-67
2022/11/19 09:51:08;;;;;;;4.40;3.30;;;1.00;99.90;;;;;;5043305;28;20420;-66
2022/11/19 09:53:42;;;;;;;3.57;3.23;;;1.30;99.90;;;;;;5057933;28;20412;-66
2022/11/19 09:56:14;;;;;;;3.73;2.70;;;1.40;99.90;;;;;;5054194;28;20405;-66
2022/11/19 09:58:42;;;;;;;3.63;2.73;;;1.10;99.90;;;;;;5054331;28;20414;-67
2022/11/19 10:01:17;;;;;;;3.57;3.27;;;1.10;99.90;;;;;;5051846;28;20421;-65
2022/11/19 10:03:50;;;;;;;2.93;2.73;;;1.20;99.90;;;;;;5046370;28;20432;-65
2022/11/19 10:06:29;;;;;;;3.73;3.40;;;1.30;99.90;;;;;;5016929;28;20489;-67
2022/11/19 10:09:34;;;;;;;3.33;3.00;;;1.20;99.90;;;;;;5035965;28;20457;-66
2022/11/19 10:12:37;;;;;;;5.00;2.60;;;1.20;99.90;;;;;;5040194;28;20873;-66
2022/11/19 10:15:15;;;;;;;3.70;2.93;;;1.20;99.90;;;;;;5039022;28;20410;-67
2022/11/19 10:18:06;;;;;;;3.97;3.67;;;1.40;99.90;;;;;;5051334;28;20413;-68
2022/11/19 10:21:13;;;;;;;3.10;2.90;;;1.70;99.90;;;;;;5043833;28;20975;-66
2022/11/19 10:23:59;;;;;;;3.10;1.80;;;1.80;99.90;;;;;;5040497;28;20414;-66
2022/11/19 10:26:38;;;;;;;4.10;2.10;;;2.20;99.90;;;;;;5039834;28;20463;-65
2022/11/19 10:29:16;;;;;;;4.33;3.07;;;2.70;99.90;;;;;;5041171;28;20486;-65
2022/11/19 10:31:46;;;;;;;4.60;2.90;;;1.90;99.90;;;;;;5053326;28;20451;-66
2022/11/19 10:34:24;;;;;;;3.07;2.77;;;1.80;99.90;;;;;;5055761;28;20419;-65
2022/11/19 10:36:58;;;;;;;2.83;2.50;;;2.00;99.90;;;;;;5047716;28;20420;-66
2022/11/19 10:39:35;;;;;;;4.23;2.60;;;2.00;99.90;;;;;;5060659;28;20421;-66
2022/11/19 10:42:38;;;;;;;3.30;2.63;;;1.80;99.90;;;;;;5054181;28;20448;-65
2022/11/19 10:45:18;;;;;;;4.23;2.90;;;2.20;99.90;;;;;;4927852;29;20457;-66
2022/11/19 10:48:05;;;;;;;5.40;2.70;;;2.20;99.90;;;;;;5043842;28;20928;-66
2022/11/19 10:50:31;;;;;;;3.77;2.63;;;2.10;99.90;;;;;;5055023;28;20429;-67
2022/11/19 10:53:24;;;;;;;3.43;2.47;;;2.10;99.90;;;;;;5059087;28;20452;-66
2022/11/19 10:56:00;;;;;;;3.53;2.90;;;2.10;99.90;;;;;;5064919;28;20709;-66
2022/11/19 10:58:36;;;;;;;3.53;3.10;;;2.10;99.90;;;;;;5067754;28;20544;-66
2022/11/19 11:01:04;;;;;;;2.63;2.43;;;2.40;99.90;;;;;;5069935;28;20918;-66
2022/11/19 11:03:48;;;;;;;6.40;3.57;;;2.00;99.90;;;;;;5063238;28;20973;-66
2022/11/19 11:06:14;;;;;;;2.07;1.90;;;2.20;99.90;;;;;;5054092;28;20448;-65
2022/11/19 11:08:53;;;;;;;3.93;2.60;;;2.10;99.90;;;;;;5057445;28;20437;-67
2022/11/19 11:11:24;;;;;;;4.33;3.50;;;1.90;99.90;;;;;;5060591;28;20555;-66
2022/11/19 11:16:46;;;;;;;3.43;3.13;;;1.80;99.90;;;;;;5063698;28;20455;-66
2022/11/19 11:19:16;;;;;;;3.00;2.70;;;2.00;99.90;;;;;;5059925;28;20412;-66
2022/11/19 11:21:42;;;;;;;5.20;4.30;;;2.00;99.90;;;;;;5067187;28;20946;-67
2022/11/19 11:24:11;;;;;;;3.80;3.50;;;2.30;99.90;;;;;;5066763;28;20467;-66
2022/11/19 11:26:39;;;;;;;4.17;3.30;;;2.00;99.90;;;;;;5062758;28;20777;-67
2022/11/19 11:29:11;;;;;;;5.17;3.50;;;2.00;99.90;;;;;;5068847;28;21137;-68
2022/11/19 11:31:46;;;;;;;3.90;3.13;;;2.00;99.90;;;;;;5065816;28;20980;-66
2022/11/19 11:34:31;;;;;;;3.90;3.43;;;2.00;99.90;;;;;;5062847;28;20412;-65
2022/11/19 11:36:59;;;;;;;6.10;4.67;;;2.00;99.90;;;;;;5061879;28;21115;-66
2022/11/19 11:39:32;;;;;;;5.40;3.70;;;2.00;99.90;;;;;;5067307;28;20413;-66
2022/11/19 11:41:59;;;;;;;4.20;3.80;;;1.90;99.90;;;;;;5068358;28;20439;-66
2022/11/19 11:44:28;;;;;;;5.80;4.00;;;1.90;99.90;;;;;;5062404;28;20967;-66
2022/11/19 11:46:57;;;;;;;4.10;3.23;;;2.10;99.90;;;;;;5067626;28;20412;-65
2022/11/19 11:49:38;;;;;;;9.70;4.70;;;2.20;99.90;;;;;;5061143;28;20412;-65
2022/11/19 11:52:32;;;;;;;5.00;4.07;;;2.40;99.90;;;;;;5062002;28;20417;-66
2022/11/19 11:55:27;;;;;;;6.93;4.90;;;2.50;99.90;;;;;;5058453;28;20503;-66
2022/11/19 11:57:55;;;;;;;4.10;3.70;;;2.70;99.90;;;;;;5037920;28;20504;-65
2022/11/19 12:00:32;;;;;;;8.33;5.17;;;2.70;99.90;;;;;;5056538;28;20413;-65
2022/11/19 12:03:31;;;;;;;4.40;4.00;;;2.80;99.90;;;;;;5044619;28;20440;-65
2022/11/19 12:06:11;;;;;;;4.03;3.73;;;3.00;99.90;;;;;;5036028;28;20568;-65
2022/11/19 12:08:59;;;;;;;7.13;4.30;;;3.00;99.90;;;;;;5051950;28;20867;-65
2022/11/19 12:11:55;;;;;;;4.50;3.80;;;2.80;99.90;;;;;;5052399;28;20418;-67
2022/11/19 12:14:46;;;;;;;5.60;4.17;;;2.90;99.90;;;;;;5048210;28;20778;-65
2022/11/19 12:17:21;;;;;;;6.77;4.60;;;3.10;99.90;;;;;;5003556;28;20406;-65
2022/11/19 12:20:15;;;;;;;5.60;4.43;;;3.20;99.90;;;;;;5048951;28;20830;-65
2022/11/19 12:23:09;;;;;;;6.53;4.97;;;3.00;99.90;;;;;;5057863;28;20948;-65
2022/11/19 12:25:59;;;;;;;5.47;3.43;;;3.10;99.90;;;;;;5050148;28;20540;-65
2022/11/19 12:28:37;;;;;;;7.10;5.50;;;3.00;99.90;;;;;;5045954;28;20435;-65
2022/11/19 12:31:26;;;;;;;5.17;4.23;;;3.10;99.90;;;;;;5053782;28;20445;-66
2022/11/19 12:34:24;;;;;;;6.40;4.50;;;3.10;99.90;;;;;;5051178;28;20932;-66
2022/11/19 12:37:03;;;;;;;4.13;3.33;;;2.90;99.90;;;;;;5054297;28;20408;-66
2022/11/19 12:39:57;;;;;;;9.50;3.50;;;2.80;99.90;;;;;;5055822;28;20926;-66
2022/11/19 12:42:31;;;;;;;5.30;4.80;;;2.70;99.90;;;;;;5053781;28;20456;-66
2022/11/19 12:45:07;;;;;;;7.03;4.57;;;2.90;99.90;;;;;;5055555;28;20527;-66
2022/11/19 12:47:52;;;;;;;6.00;4.10;;;2.70;99.90;;;;;;5050218;28;20423;-65
2022/11/19 12:50:25;;;;;;;7.93;5.30;;;2.80;99.90;;;;;;5051274;28;20401;-66
2022/11/19 12:53:21;;;;;;;5.10;4.30;;;2.80;99.90;;;;;;5049776;28;20444;-65
2022/11/19 12:56:15;;;;;;;7.10;5.00;;;2.70;99.90;;;;;;5048467;28;21158;-65
2022/11/19 12:58:56;;;;;;;6.40;3.70;;;2.60;99.90;;;;;;5012602;22;20454;-67
2022/11/19 13:01:29;;;;;;;5.40;4.23;;;2.60;99.90;;;;;;5004397;28;20419;-67
2022/11/19 13:04:04;;;;;;;8.10;4.50;;;2.50;99.90;;;;;;5016153;28;20439;-67
2022/11/19 13:07:07;;;;;;;7.13;4.43;;;2.70;99.90;;;;;;5015510;28;20466;-68
2022/11/19 13:09:45;;;;;;;8.10;4.90;;;2.80;99.90;;;;;;5001880;28;20444;-68
2022/11/19 13:12:15;;;;;;;8.20;4.67;;;2.80;99.90;;;;;;5021954;28;20501;-66
2022/11/19 13:14:51;;;;;;;4.63;3.60;;;2.90;99.90;;;;;;5020215;28;20508;-68
2022/11/19 13:17:25;;;;;;;5.43;4.30;;;2.80;99.90;;;;;;5020503;28;20403;-68
2022/11/19 13:20:00;;;;;;;5.93;4.50;;;2.80;99.90;;;;;;4998277;28;20800;-67
2022/11/19 13:22:32;;;;;;;6.40;5.80;;;2.80;99.90;;;;;;5019165;28;20417;-67
2022/11/19 13:25:03;;;;;;;7.07;5.63;;;2.70;99.90;;;;;;5001561;28;20463;-67
2022/11/19 13:27:30;;;;;;;6.23;4.20;;;2.60;99.90;;;;;;5021099;28;20446;-67